sensor_id;sensor_type;location;lat;lon;timestamp;P1;durP1;ratioP1;P2;durP2;ratioP2
15381;SDS011;7789;51.364;12.358;2023-08-12T00:02:27;4.45;;;2.10;;
15381;SDS011;7789;51.364;12.358;2023-08-12T00:07:37;7.13;;;2.22;;
15381;SDS011;7789;51.364;12.358;2023-08-12T00:12:45;4.68;;;2.72;;
15381;SDS011;7789;51.364;12.358;2023-08-12T00:17:49;5.82;;;2.55;;
15381;SDS011;7789;51.364;12.358;2023-08-12T00:22:57;6.00;;;2.45;;
15381;SDS011;7789;51.364;12.358;2023-08-12T00:28:01;5.63;;;2.85;;
15381;SDS011;7789;51.364;12.358;2023-08-12T00:33:09;6.78;;;3.20;;
15381;SDS011;7789;51.364;12.358;2023-08-12T00:38:17;5.60;;;2.42;;
15381;SDS011;7789;51.364;12.358;2023-08-12T00:43:22;8.65;;;2.72;;
15381;SDS011;7789;51.364;12.358;2023-08-12T00:48:28;8.48;;;2.72;;
15381;SDS011;7789;51.364;12.358;2023-08-12T00:53:35;3.88;;;2.42;;
15381;SDS011;7789;51.364;12.358;2023-08-12T00:58:45;6.55;;;2.38;;
15381;SDS011;7789;51.364;12.358;2023-08-12T01:03:50;4.13;;;2.30;;
15381;SDS011;7789;51.364;12.358;2023-08-12T01:08:57;7.88;;;2.65;;
15381;SDS011;7789;51.364;12.358;2023-08-12T01:14:04;2.78;;;2.22;;
15381;SDS011;7789;51.364;12.358;2023-08-12T01:19:19;7.47;;;2.83;;
15381;SDS011;7789;51.364;12.358;2023-08-12T01:24:38;8.90;;;2.40;;
15381;SDS011;7789;51.364;12.358;2023-08-12T01:29:44;5.93;;;2.30;;
15381;SDS011;7789;51.364;12.358;2023-08-12T01:34:54;4.93;;;2.58;;
15381;SDS011;7789;51.364;12.358;2023-08-12T01:40:09;6.43;;;2.60;;
15381;SDS011;7789;51.364;12.358;2023-08-12T01:45:17;3.35;;;2.22;;
15381;SDS011;7789;51.364;12.358;2023-08-12T01:50:22;5.82;;;2.88;;
15381;SDS011;7789;51.364;12.358;2023-08-12T01:55:33;4.65;;;2.42;;
15381;SDS011;7789;51.364;12.358;2023-08-12T02:00:39;4.22;;;2.42;;
15381;SDS011;7789;51.364;12.358;2023-08-12T02:05:46;5.07;;;2.13;;
15381;SDS011;7789;51.364;12.358;2023-08-12T02:10:55;5.03;;;2.47;;
15381;SDS011;7789;51.364;12.358;2023-08-12T02:16:01;7.60;;;2.47;;
15381;SDS011;7789;51.364;12.358;2023-08-12T02:21:09;2.97;;;2.60;;
15381;SDS011;7789;51.364;12.358;2023-08-12T02:26:16;3.75;;;2.70;;
15381;SDS011;7789;51.364;12.358;2023-08-12T02:31:26;4.55;;;2.50;;
15381;SDS011;7789;51.364;12.358;2023-08-12T02:36:34;8.13;;;2.53;;
15381;SDS011;7789;51.364;12.358;2023-08-12T02:41:48;4.95;;;2.70;;
15381;SDS011;7789;51.364;12.358;2023-08-12T02:46:53;4.82;;;2.15;;
15381;SDS011;7789;51.364;12.358;2023-08-12T02:52:02;4.72;;;2.63;;
15381;SDS011;7789;51.364;12.358;2023-08-12T02:57:13;4.32;;;2.60;;
15381;SDS011;7789;51.364;12.358;2023-08-12T03:02:19;3.92;;;2.58;;
15381;SDS011;7789;51.364;12.358;2023-08-12T03:07:25;3.58;;;2.90;;
15381;SDS011;7789;51.364;12.358;2023-08-12T03:12:35;6.97;;;2.55;;
15381;SDS011;7789;51.364;12.358;2023-08-12T03:17:43;3.17;;;2.38;;
15381;SDS011;7789;51.364;12.358;2023-08-12T03:22:52;6.00;;;2.40;;
15381;SDS011;7789;51.364;12.358;2023-08-12T03:28:02;5.97;;;2.50;;
15381;SDS011;7789;51.364;12.358;2023-08-12T03:33:13;3.85;;;2.78;;
15381;SDS011;7789;51.364;12.358;2023-08-12T03:38:18;4.72;;;2.60;;
15381;SDS011;7789;51.364;12.358;2023-08-12T03:43:27;3.35;;;2.60;;
15381;SDS011;7789;51.364;12.358;2023-08-12T03:48:34;3.85;;;2.30;;
15381;SDS011;7789;51.364;12.358;2023-08-12T03:53:40;3.45;;;2.28;;
15381;SDS011;7789;51.364;12.358;2023-08-12T03:58:47;3.72;;;2.40;;
15381;SDS011;7789;51.364;12.358;2023-08-12T04:03:53;2.67;;;2.38;;
15381;SDS011;7789;51.364;12.358;2023-08-12T04:09:01;2.65;;;2.45;;
15381;SDS011;7789;51.364;12.358;2023-08-12T04:14:10;2.80;;;2.20;;
15381;SDS011;7789;51.364;12.358;2023-08-12T04:19:14;2.50;;;2.00;;
15381;SDS011;7789;51.364;12.358;2023-08-12T04:24:20;2.85;;;2.55;;
15381;SDS011;7789;51.364;12.358;2023-08-12T04:29:26;4.53;;;2.47;;
15381;SDS011;7789;51.364;12.358;2023-08-12T04:34:31;2.55;;;2.35;;
15381;SDS011;7789;51.364;12.358;2023-08-12T04:39:37;5.40;;;2.60;;
15381;SDS011;7789;51.364;12.358;2023-08-12T04:44:44;3.95;;;2.65;;
15381;SDS011;7789;51.364;12.358;2023-08-12T04:49:53;5.90;;;2.30;;
15381;SDS011;7789;51.364;12.358;2023-08-12T04:54:58;4.25;;;2.50;;
15381;SDS011;7789;51.364;12.358;2023-08-12T05:00:06;4.60;;;2.25;;
15381;SDS011;7789;51.364;12.358;2023-08-12T05:05:12;2.60;;;2.20;;
15381;SDS011;7789;51.364;12.358;2023-08-12T05:10:18;2.92;;;2.30;;
15381;SDS011;7789;51.364;12.358;2023-08-12T05:15:26;3.47;;;2.40;;
15381;SDS011;7789;51.364;12.358;2023-08-12T05:20:31;4.50;;;2.13;;
15381;SDS011;7789;51.364;12.358;2023-08-12T05:25:36;3.92;;;2.00;;
15381;SDS011;7789;51.364;12.358;2023-08-12T05:30:45;2.88;;;2.00;;
15381;SDS011;7789;51.364;12.358;2023-08-12T05:35:53;3.35;;;1.75;;
15381;SDS011;7789;51.364;12.358;2023-08-12T05:41:00;2.88;;;2.10;;
15381;SDS011;7789;51.364;12.358;2023-08-12T05:46:11;6.55;;;2.47;;
15381;SDS011;7789;51.364;12.358;2023-08-12T05:51:19;2.15;;;1.95;;
15381;SDS011;7789;51.364;12.358;2023-08-12T05:56:35;4.63;;;2.25;;
15381;SDS011;7789;51.364;12.358;2023-08-12T06:01:41;2.05;;;1.80;;
15381;SDS011;7789;51.364;12.358;2023-08-12T06:06:55;2.53;;;2.33;;
15381;SDS011;7789;51.364;12.358;2023-08-12T06:12:01;1.95;;;1.77;;
15381;SDS011;7789;51.364;12.358;2023-08-12T06:17:08;2.42;;;2.20;;
15381;SDS011;7789;51.364;12.358;2023-08-12T06:22:16;2.15;;;1.85;;
15381;SDS011;7789;51.364;12.358;2023-08-12T06:27:21;2.55;;;2.00;;
15381;SDS011;7789;51.364;12.358;2023-08-12T06:32:34;5.38;;;1.90;;
15381;SDS011;7789;51.364;12.358;2023-08-12T06:37:38;2.22;;;1.90;;
15381;SDS011;7789;51.364;12.358;2023-08-12T06:42:43;3.42;;;1.90;;
15381;SDS011;7789;51.364;12.358;2023-08-12T06:48:02;2.20;;;2.00;;
15381;SDS011;7789;51.364;12.358;2023-08-12T06:53:08;2.03;;;1.67;;
15381;SDS011;7789;51.364;12.358;2023-08-12T06:58:13;2.28;;;2.00;;
15381;SDS011;7789;51.364;12.358;2023-08-12T07:03:21;2.90;;;2.30;;
15381;SDS011;7789;51.364;12.358;2023-08-12T07:08:30;1.90;;;1.65;;
15381;SDS011;7789;51.364;12.358;2023-08-12T07:13:36;2.20;;;1.70;;
15381;SDS011;7789;51.364;12.358;2023-08-12T07:18:43;5.57;;;1.90;;
15381;SDS011;7789;51.364;12.358;2023-08-12T07:23:56;1.88;;;1.77;;
15381;SDS011;7789;51.364;12.358;2023-08-12T07:29:08;2.78;;;2.20;;
15381;SDS011;7789;51.364;12.358;2023-08-12T07:34:23;6.00;;;1.90;;
15381;SDS011;7789;51.364;12.358;2023-08-12T07:39:32;2.20;;;2.00;;
15381;SDS011;7789;51.364;12.358;2023-08-12T07:44:40;5.63;;;2.00;;
15381;SDS011;7789;51.364;12.358;2023-08-12T07:50:01;3.65;;;3.35;;
15381;SDS011;7789;51.364;12.358;2023-08-12T07:55:08;3.10;;;2.13;;
15381;SDS011;7789;51.364;12.358;2023-08-12T08:00:18;2.88;;;1.80;;
15381;SDS011;7789;51.364;12.358;2023-08-12T08:05:25;3.30;;;1.90;;
15381;SDS011;7789;51.364;12.358;2023-08-12T08:10:39;6.10;;;1.80;;
15381;SDS011;7789;51.364;12.358;2023-08-12T08:15:48;5.20;;;2.10;;
15381;SDS011;7789;51.364;12.358;2023-08-12T08:20:59;4.63;;;1.95;;
15381;SDS011;7789;51.364;12.358;2023-08-12T08:26:14;2.28;;;1.85;;
15381;SDS011;7789;51.364;12.358;2023-08-12T08:31:20;2.13;;;1.92;;
15381;SDS011;7789;51.364;12.358;2023-08-12T08:36:27;3.80;;;1.70;;
15381;SDS011;7789;51.364;12.358;2023-08-12T08:41:34;4.50;;;2.15;;
15381;SDS011;7789;51.364;12.358;2023-08-12T08:46:43;2.50;;;1.98;;
15381;SDS011;7789;51.364;12.358;2023-08-12T08:51:53;3.63;;;2.00;;
15381;SDS011;7789;51.364;12.358;2023-08-12T08:57:00;2.25;;;1.80;;
15381;SDS011;7789;51.364;12.358;2023-08-12T09:02:18;2.53;;;2.15;;
15381;SDS011;7789;51.364;12.358;2023-08-12T09:07:28;2.85;;;1.80;;
15381;SDS011;7789;51.364;12.358;2023-08-12T09:12:35;3.88;;;1.95;;
15381;SDS011;7789;51.364;12.358;2023-08-12T09:17:40;3.65;;;2.10;;
15381;SDS011;7789;51.364;12.358;2023-08-12T09:28:16;1.52;;;1.42;;
15381;SDS011;7789;51.364;12.358;2023-08-12T09:33:24;1.73;;;1.63;;
15381;SDS011;7789;51.364;12.358;2023-08-12T09:38:37;1.75;;;1.65;;
15381;SDS011;7789;51.364;12.358;2023-08-12T09:43:51;3.22;;;2.22;;
15381;SDS011;7789;51.364;12.358;2023-08-12T09:49:00;2.00;;;1.80;;
15381;SDS011;7789;51.364;12.358;2023-08-12T09:54:13;3.05;;;1.80;;
15381;SDS011;7789;51.364;12.358;2023-08-12T09:59:26;4.32;;;2.20;;
15381;SDS011;7789;51.364;12.358;2023-08-12T10:04:37;3.67;;;2.30;;
15381;SDS011;7789;51.364;12.358;2023-08-12T10:09:47;4.55;;;2.00;;
15381;SDS011;7789;51.364;12.358;2023-08-12T10:15:17;3.15;;;1.83;;
15381;SDS011;7789;51.364;12.358;2023-08-12T10:20:44;4.15;;;2.10;;
15381;SDS011;7789;51.364;12.358;2023-08-12T10:26:03;2.28;;;1.85;;
15381;SDS011;7789;51.364;12.358;2023-08-12T10:31:16;5.82;;;2.03;;
15381;SDS011;7789;51.364;12.358;2023-08-12T10:36:25;3.30;;;2.25;;
15381;SDS011;7789;51.364;12.358;2023-08-12T10:42:05;3.25;;;2.20;;
15381;SDS011;7789;51.364;12.358;2023-08-12T10:47:20;4.05;;;2.30;;
15381;SDS011;7789;51.364;12.358;2023-08-12T10:52:27;4.03;;;2.53;;
15381;SDS011;7789;51.364;12.358;2023-08-12T10:57:48;5.03;;;2.35;;
15381;SDS011;7789;51.364;12.358;2023-08-12T11:03:15;2.70;;;2.50;;
15381;SDS011;7789;51.364;12.358;2023-08-12T11:08:24;2.28;;;2.08;;
15381;SDS011;7789;51.364;12.358;2023-08-12T11:13:46;3.17;;;2.50;;
15381;SDS011;7789;51.364;12.358;2023-08-12T11:18:52;2.22;;;2.08;;
15381;SDS011;7789;51.364;12.358;2023-08-12T11:24:03;3.65;;;2.15;;
15381;SDS011;7789;51.364;12.358;2023-08-12T11:29:18;3.60;;;2.65;;
15381;SDS011;7789;51.364;12.358;2023-08-12T11:34:28;2.92;;;2.58;;
15381;SDS011;7789;51.364;12.358;2023-08-12T11:39:36;3.08;;;2.15;;
15381;SDS011;7789;51.364;12.358;2023-08-12T11:45:24;6.82;;;2.05;;
15381;SDS011;7789;51.364;12.358;2023-08-12T11:50:34;5.22;;;2.20;;
15381;SDS011;7789;51.364;12.358;2023-08-12T11:55:53;2.83;;;1.63;;
15381;SDS011;7789;51.364;12.358;2023-08-12T12:01:02;2.55;;;1.90;;
15381;SDS011;7789;51.364;12.358;2023-08-12T12:06:12;2.22;;;1.80;;
15381;SDS011;7789;51.364;12.358;2023-08-12T12:11:17;3.70;;;1.95;;
15381;SDS011;7789;51.364;12.358;2023-08-12T12:16:27;3.25;;;1.65;;
15381;SDS011;7789;51.364;12.358;2023-08-12T12:21:44;1.92;;;1.50;;
15381;SDS011;7789;51.364;12.358;2023-08-12T12:26:53;3.78;;;1.70;;
15381;SDS011;7789;51.364;12.358;2023-08-12T12:32:04;1.52;;;1.23;;
15381;SDS011;7789;51.364;12.358;2023-08-12T12:37:18;3.85;;;1.40;;
15381;SDS011;7789;51.364;12.358;2023-08-12T12:42:32;2.60;;;1.40;;
15381;SDS011;7789;51.364;12.358;2023-08-12T12:47:42;2.33;;;1.50;;
15381;SDS011;7789;51.364;12.358;2023-08-12T12:52:49;1.50;;;1.40;;
15381;SDS011;7789;51.364;12.358;2023-08-12T12:58:20;4.22;;;1.73;;
15381;SDS011;7789;51.364;12.358;2023-08-12T13:03:29;1.65;;;1.20;;
15381;SDS011;7789;51.364;12.358;2023-08-12T13:08:40;2.15;;;1.27;;
15381;SDS011;7789;51.364;12.358;2023-08-12T13:13:47;4.05;;;1.50;;
15381;SDS011;7789;51.364;12.358;2023-08-12T13:18:56;4.07;;;1.67;;
15381;SDS011;7789;51.364;12.358;2023-08-12T13:24:02;3.97;;;1.42;;
15381;SDS011;7789;51.364;12.358;2023-08-12T13:29:07;1.65;;;1.27;;
15381;SDS011;7789;51.364;12.358;2023-08-12T13:34:15;2.50;;;1.35;;
15381;SDS011;7789;51.364;12.358;2023-08-12T13:39:22;2.80;;;1.40;;
15381;SDS011;7789;51.364;12.358;2023-08-12T13:44:36;3.92;;;1.50;;
15381;SDS011;7789;51.364;12.358;2023-08-12T13:49:50;1.88;;;1.30;;
15381;SDS011;7789;51.364;12.358;2023-08-12T13:54:54;1.45;;;1.17;;
15381;SDS011;7789;51.364;12.358;2023-08-12T13:59:58;2.72;;;1.33;;
15381;SDS011;7789;51.364;12.358;2023-08-12T14:05:03;2.33;;;1.20;;
15381;SDS011;7789;51.364;12.358;2023-08-12T14:10:07;2.28;;;1.20;;
15381;SDS011;7789;51.364;12.358;2023-08-12T14:15:11;3.95;;;1.33;;
15381;SDS011;7789;51.364;12.358;2023-08-12T14:20:16;3.15;;;1.52;;
15381;SDS011;7789;51.364;12.358;2023-08-12T14:25:20;2.13;;;1.50;;
15381;SDS011;7789;51.364;12.358;2023-08-12T14:30:24;2.08;;;1.50;;
15381;SDS011;7789;51.364;12.358;2023-08-12T14:35:30;1.13;;;1.00;;
15381;SDS011;7789;51.364;12.358;2023-08-12T14:40:34;4.70;;;1.42;;
15381;SDS011;7789;51.364;12.358;2023-08-12T14:45:37;2.95;;;1.52;;
15381;SDS011;7789;51.364;12.358;2023-08-12T14:50:42;1.75;;;1.50;;
15381;SDS011;7789;51.364;12.358;2023-08-12T14:55:46;2.70;;;1.70;;
15381;SDS011;7789;51.364;12.358;2023-08-12T15:00:49;7.72;;;1.60;;
15381;SDS011;7789;51.364;12.358;2023-08-12T15:05:59;4.55;;;1.63;;
15381;SDS011;7789;51.364;12.358;2023-08-12T15:11:05;2.45;;;1.50;;
15381;SDS011;7789;51.364;12.358;2023-08-12T15:16:09;2.70;;;2.50;;
15381;SDS011;7789;51.364;12.358;2023-08-12T15:21:14;1.80;;;1.70;;
15381;SDS011;7789;51.364;12.358;2023-08-12T15:26:21;2.45;;;1.80;;
15381;SDS011;7789;51.364;12.358;2023-08-12T15:31:25;2.42;;;2.00;;
15381;SDS011;7789;51.364;12.358;2023-08-12T15:36:30;3.10;;;1.60;;
15381;SDS011;7789;51.364;12.358;2023-08-12T15:41:38;3.05;;;2.42;;
15381;SDS011;7789;51.364;12.358;2023-08-12T15:46:46;4.63;;;3.03;;
15381;SDS011;7789;51.364;12.358;2023-08-12T15:51:52;2.45;;;2.25;;
15381;SDS011;7789;51.364;12.358;2023-08-12T15:56:55;3.60;;;2.38;;
15381;SDS011;7789;51.364;12.358;2023-08-12T16:01:59;3.58;;;2.45;;
15381;SDS011;7789;51.364;12.358;2023-08-12T16:07:04;2.97;;;2.45;;
15381;SDS011;7789;51.364;12.358;2023-08-12T16:12:08;5.15;;;3.00;;
15381;SDS011;7789;51.364;12.358;2023-08-12T16:17:12;5.38;;;3.08;;
15381;SDS011;7789;51.364;12.358;2023-08-12T16:22:17;4.55;;;2.60;;
15381;SDS011;7789;51.364;12.358;2023-08-12T16:27:20;3.53;;;2.80;;
15381;SDS011;7789;51.364;12.358;2023-08-12T16:32:24;3.33;;;2.70;;
15381;SDS011;7789;51.364;12.358;2023-08-12T16:37:28;4.97;;;2.65;;
15381;SDS011;7789;51.364;12.358;2023-08-12T16:42:32;3.33;;;2.70;;
15381;SDS011;7789;51.364;12.358;2023-08-12T16:47:35;3.63;;;2.88;;
15381;SDS011;7789;51.364;12.358;2023-08-12T16:52:40;3.30;;;2.67;;
15381;SDS011;7789;51.364;12.358;2023-08-12T16:57:43;5.65;;;3.50;;
15381;SDS011;7789;51.364;12.358;2023-08-12T17:02:46;3.97;;;3.25;;
15381;SDS011;7789;51.364;12.358;2023-08-12T17:07:51;5.13;;;3.60;;
15381;SDS011;7789;51.364;12.358;2023-08-12T17:12:54;6.57;;;3.63;;
15381;SDS011;7789;51.364;12.358;2023-08-12T17:17:57;4.35;;;3.58;;
15381;SDS011;7789;51.364;12.358;2023-08-12T17:23:04;5.03;;;3.20;;
15381;SDS011;7789;51.364;12.358;2023-08-12T17:28:08;4.38;;;3.35;;
15381;SDS011;7789;51.364;12.358;2023-08-12T17:33:11;6.45;;;3.25;;
15381;SDS011;7789;51.364;12.358;2023-08-12T17:38:16;3.85;;;2.95;;
15381;SDS011;7789;51.364;12.358;2023-08-12T17:43:24;5.53;;;3.47;;
15381;SDS011;7789;51.364;12.358;2023-08-12T17:48:31;4.00;;;2.88;;
15381;SDS011;7789;51.364;12.358;2023-08-12T17:53:36;3.70;;;2.90;;
15381;SDS011;7789;51.364;12.358;2023-08-12T17:58:40;4.80;;;2.95;;
15381;SDS011;7789;51.364;12.358;2023-08-12T18:03:44;4.20;;;2.92;;
15381;SDS011;7789;51.364;12.358;2023-08-12T18:08:48;6.18;;;3.30;;
15381;SDS011;7789;51.364;12.358;2023-08-12T18:13:56;6.43;;;3.05;;
15381;SDS011;7789;51.364;12.358;2023-08-12T18:18:59;6.05;;;2.80;;
15381;SDS011;7789;51.364;12.358;2023-08-12T18:24:04;4.30;;;2.88;;
15381;SDS011;7789;51.364;12.358;2023-08-12T18:29:08;4.13;;;2.85;;
15381;SDS011;7789;51.364;12.358;2023-08-12T18:34:12;3.42;;;3.03;;
15381;SDS011;7789;51.364;12.358;2023-08-12T18:39:17;3.10;;;2.80;;
15381;SDS011;7789;51.364;12.358;2023-08-12T18:44:20;4.30;;;3.20;;
15381;SDS011;7789;51.364;12.358;2023-08-12T18:49:24;4.90;;;2.80;;
15381;SDS011;7789;51.364;12.358;2023-08-12T18:54:28;4.15;;;2.88;;
15381;SDS011;7789;51.364;12.358;2023-08-12T18:59:32;4.68;;;2.88;;
15381;SDS011;7789;51.364;12.358;2023-08-12T19:04:35;5.43;;;2.83;;
15381;SDS011;7789;51.364;12.358;2023-08-12T19:09:40;4.45;;;2.70;;
15381;SDS011;7789;51.364;12.358;2023-08-12T19:14:43;5.40;;;3.03;;
15381;SDS011;7789;51.364;12.358;2023-08-12T19:19:48;5.07;;;2.95;;
15381;SDS011;7789;51.364;12.358;2023-08-12T19:24:57;4.20;;;2.50;;
15381;SDS011;7789;51.364;12.358;2023-08-12T19:30:00;3.45;;;2.53;;
15381;SDS011;7789;51.364;12.358;2023-08-12T19:35:05;4.38;;;2.30;;
15381;SDS011;7789;51.364;12.358;2023-08-12T19:40:11;4.50;;;2.72;;
15381;SDS011;7789;51.364;12.358;2023-08-12T19:45:16;5.10;;;3.38;;
15381;SDS011;7789;51.364;12.358;2023-08-12T19:50:20;7.15;;;5.80;;
15381;SDS011;7789;51.364;12.358;2023-08-12T19:55:25;9.68;;;8.27;;
15381;SDS011;7789;51.364;12.358;2023-08-12T20:00:28;6.32;;;3.90;;
15381;SDS011;7789;51.364;12.358;2023-08-12T20:05:31;3.40;;;2.47;;
15381;SDS011;7789;51.364;12.358;2023-08-12T20:10:36;4.10;;;3.17;;
15381;SDS011;7789;51.364;12.358;2023-08-12T20:15:40;5.97;;;4.47;;
15381;SDS011;7789;51.364;12.358;2023-08-12T20:20:44;3.67;;;3.28;;
15381;SDS011;7789;51.364;12.358;2023-08-12T20:25:53;7.82;;;5.90;;
15381;SDS011;7789;51.364;12.358;2023-08-12T20:30:59;5.88;;;3.22;;
15381;SDS011;7789;51.364;12.358;2023-08-12T20:36:03;3.50;;;2.50;;
15381;SDS011;7789;51.364;12.358;2023-08-12T20:41:09;3.25;;;2.20;;
15381;SDS011;7789;51.364;12.358;2023-08-12T20:46:12;3.40;;;2.50;;
15381;SDS011;7789;51.364;12.358;2023-08-12T20:51:16;7.07;;;2.90;;
15381;SDS011;7789;51.364;12.358;2023-08-12T20:56:21;3.40;;;2.80;;
15381;SDS011;7789;51.364;12.358;2023-08-12T21:01:24;4.60;;;2.35;;
15381;SDS011;7789;51.364;12.358;2023-08-12T21:06:28;3.92;;;2.85;;
15381;SDS011;7789;51.364;12.358;2023-08-12T21:11:33;3.13;;;2.53;;
15381;SDS011;7789;51.364;12.358;2023-08-12T21:16:36;4.43;;;2.80;;
15381;SDS011;7789;51.364;12.358;2023-08-12T21:21:39;4.03;;;2.80;;
15381;SDS011;7789;51.364;12.358;2023-08-12T21:26:44;5.15;;;3.50;;
15381;SDS011;7789;51.364;12.358;2023-08-12T21:31:47;3.22;;;2.60;;
15381;SDS011;7789;51.364;12.358;2023-08-12T21:36:51;4.40;;;2.78;;
15381;SDS011;7789;51.364;12.358;2023-08-12T21:41:56;4.47;;;2.72;;
15381;SDS011;7789;51.364;12.358;2023-08-12T21:46:59;3.72;;;2.80;;
15381;SDS011;7789;51.364;12.358;2023-08-12T21:52:02;3.65;;;2.40;;
15381;SDS011;7789;51.364;12.358;2023-08-12T21:57:07;3.63;;;2.80;;
15381;SDS011;7789;51.364;12.358;2023-08-12T22:02:12;2.78;;;2.13;;
15381;SDS011;7789;51.364;12.358;2023-08-12T22:07:28;2.75;;;2.20;;
15381;SDS011;7789;51.364;12.358;2023-08-12T22:12:33;4.25;;;2.30;;
15381;SDS011;7789;51.364;12.358;2023-08-12T22:17:37;3.40;;;2.65;;
15381;SDS011;7789;51.364;12.358;2023-08-12T22:22:42;4.20;;;2.30;;
15381;SDS011;7789;51.364;12.358;2023-08-12T22:27:47;4.90;;;2.63;;
15381;SDS011;7789;51.364;12.358;2023-08-12T22:32:50;4.75;;;2.45;;
15381;SDS011;7789;51.364;12.358;2023-08-12T22:37:54;5.43;;;3.30;;
15381;SDS011;7789;51.364;12.358;2023-08-12T22:42:59;5.13;;;2.20;;
15381;SDS011;7789;51.364;12.358;2023-08-12T22:48:02;4.13;;;2.10;;
15381;SDS011;7789;51.364;12.358;2023-08-12T22:53:06;4.63;;;2.33;;
15381;SDS011;7789;51.364;12.358;2023-08-12T22:58:11;2.67;;;2.20;;
15381;SDS011;7789;51.364;12.358;2023-08-12T23:03:14;3.00;;;2.45;;
15381;SDS011;7789;51.364;12.358;2023-08-12T23:08:17;4.30;;;2.53;;
15381;SDS011;7789;51.364;12.358;2023-08-12T23:13:22;3.28;;;2.30;;
15381;SDS011;7789;51.364;12.358;2023-08-12T23:18:26;4.45;;;2.58;;
15381;SDS011;7789;51.364;12.358;2023-08-12T23:23:29;2.75;;;2.10;;
15381;SDS011;7789;51.364;12.358;2023-08-12T23:28:34;4.05;;;2.78;;
15381;SDS011;7789;51.364;12.358;2023-08-12T23:33:38;2.92;;;2.30;;
15381;SDS011;7789;51.364;12.358;2023-08-12T23:38:41;6.32;;;2.65;;
15381;SDS011;7789;51.364;12.358;2023-08-12T23:43:46;3.38;;;2.33;;
15381;SDS011;7789;51.364;12.358;2023-08-12T23:48:49;2.33;;;2.10;;
15381;SDS011;7789;51.364;12.358;2023-08-12T23:53:53;2.42;;;2.03;;
15381;SDS011;7789;51.364;12.358;2023-08-12T23:58:57;6.68;;;1.98;;
